Bethlehem, Georgia
Current Conditions -  °F | °C
As of 7:15 PM on Thursday 27 Nov 2014 (Local Time) from KWDR Reporting Station
Broken Clouds Broken Clouds  
Wind Chill: 36°   Ceiling: 4300
Heat Index: 42°   Visibility: 10mi
Dew Point: 30°   Wind: 10mph
Humidity: 63%   Direction: 320°NW
Pressure: 30.35"   Gusts: NA
Location:  33.93°N, 83.71°W
Report Text: KWDR 280015Z AUTO 32009KT 10SM BKN043 06/M01 A3035 RMK AO2 T00551010
Loading
Personal Weather Stations






























Interactive Weather Map New forecast layout! Learn more

10-Day Weather Forecast

Advertisements
Track Severe Weather on mobile